sensor_id;sensor_type;location;lat;lon;timestamp;P1;durP1;ratioP1;P2;durP2;ratioP2
3267;SDS011;1646;52.450;13.326;2023-11-22T00:01:40;9.33;;;5.07;;
3267;SDS011;1646;52.450;13.326;2023-11-22T00:06:39;8.37;;;4.70;;
3267;SDS011;1646;52.450;13.326;2023-11-22T00:11:39;8.07;;;4.43;;
3267;SDS011;1646;52.450;13.326;2023-11-22T00:16:37;8.27;;;4.50;;
3267;SDS011;1646;52.450;13.326;2023-11-22T00:21:37;8.10;;;4.43;;
3267;SDS011;1646;52.450;13.326;2023-11-22T00:26:35;11.23;;;5.53;;
3267;SDS011;1646;52.450;13.326;2023-11-22T00:31:35;10.43;;;4.33;;
3267;SDS011;1646;52.450;13.326;2023-11-22T00:36:33;9.20;;;5.10;;
3267;SDS011;1646;52.450;13.326;2023-11-22T00:41:31;8.33;;;4.63;;
3267;SDS011;1646;52.450;13.326;2023-11-22T00:46:32;10.37;;;5.13;;
3267;SDS011;1646;52.450;13.326;2023-11-22T00:51:32;11.87;;;5.33;;
3267;SDS011;1646;52.450;13.326;2023-11-22T00:56:30;7.93;;;4.70;;
3267;SDS011;1646;52.450;13.326;2023-11-22T01:01:28;6.70;;;3.97;;
3267;SDS011;1646;52.450;13.326;2023-11-22T01:06:28;10.60;;;4.70;;
3267;SDS011;1646;52.450;13.326;2023-11-22T01:11:29;8.70;;;4.63;;
3267;SDS011;1646;52.450;13.326;2023-11-22T01:16:28;12.60;;;5.57;;
3267;SDS011;1646;52.450;13.326;2023-11-22T01:21:26;9.50;;;5.30;;
3267;SDS011;1646;52.450;13.326;2023-11-22T01:26:24;9.90;;;5.03;;
3267;SDS011;1646;52.450;13.326;2023-11-22T01:31:24;10.70;;;5.47;;
3267;SDS011;1646;52.450;13.326;2023-11-22T01:36:23;10.10;;;5.30;;
3267;SDS011;1646;52.450;13.326;2023-11-22T01:41:23;14.73;;;5.93;;
3267;SDS011;1646;52.450;13.326;2023-11-22T01:46:21;15.57;;;6.20;;
3267;SDS011;1646;52.450;13.326;2023-11-22T01:51:23;11.23;;;5.93;;
3267;SDS011;1646;52.450;13.326;2023-11-22T01:56:24;13.63;;;6.20;;
3267;SDS011;1646;52.450;13.326;2023-11-22T02:01:24;12.77;;;6.07;;
3267;SDS011;1646;52.450;13.326;2023-11-22T02:06:25;11.90;;;6.20;;
3267;SDS011;1646;52.450;13.326;2023-11-22T02:11:23;9.67;;;5.90;;
3267;SDS011;1646;52.450;13.326;2023-11-22T02:16:24;10.93;;;5.67;;
3267;SDS011;1646;52.450;13.326;2023-11-22T02:21:25;9.50;;;4.40;;
3267;SDS011;1646;52.450;13.326;2023-11-22T02:26:25;8.60;;;4.80;;
3267;SDS011;1646;52.450;13.326;2023-11-22T02:31:23;11.07;;;4.67;;
3267;SDS011;1646;52.450;13.326;2023-11-22T02:36:24;11.00;;;4.30;;
3267;SDS011;1646;52.450;13.326;2023-11-22T02:41:23;9.63;;;4.37;;
3267;SDS011;1646;52.450;13.326;2023-11-22T02:46:23;6.30;;;3.63;;
3267;SDS011;1646;52.450;13.326;2023-11-22T02:51:22;15.07;;;4.50;;
3267;SDS011;1646;52.450;13.326;2023-11-22T02:56:22;9.50;;;4.57;;
3267;SDS011;1646;52.450;13.326;2023-11-22T03:01:20;7.67;;;3.97;;
3267;SDS011;1646;52.450;13.326;2023-11-22T03:06:20;7.63;;;4.40;;
3267;SDS011;1646;52.450;13.326;2023-11-22T03:11:18;11.03;;;5.00;;
3267;SDS011;1646;52.450;13.326;2023-11-22T03:16:17;6.37;;;3.50;;
3267;SDS011;1646;52.450;13.326;2023-11-22T03:21:16;9.00;;;4.10;;
3267;SDS011;1646;52.450;13.326;2023-11-22T03:26:16;7.00;;;4.00;;
3267;SDS011;1646;52.450;13.326;2023-11-22T03:31:16;7.60;;;3.97;;
3267;SDS011;1646;52.450;13.326;2023-11-22T03:36:14;7.40;;;4.00;;
3267;SDS011;1646;52.450;13.326;2023-11-22T03:41:12;8.60;;;4.70;;
3267;SDS011;1646;52.450;13.326;2023-11-22T03:46:12;8.27;;;4.57;;
3267;SDS011;1646;52.450;13.326;2023-11-22T03:51:10;8.33;;;4.27;;
3267;SDS011;1646;52.450;13.326;2023-11-22T03:56:10;7.80;;;4.50;;
3267;SDS011;1646;52.450;13.326;2023-11-22T04:01:08;12.00;;;5.30;;
3267;SDS011;1646;52.450;13.326;2023-11-22T04:06:08;8.63;;;5.03;;
3267;SDS011;1646;52.450;13.326;2023-11-22T04:11:06;11.63;;;6.00;;
3267;SDS011;1646;52.450;13.326;2023-11-22T04:16:05;13.10;;;4.93;;
3267;SDS011;1646;52.450;13.326;2023-11-22T04:21:05;9.97;;;5.20;;
3267;SDS011;1646;52.450;13.326;2023-11-22T04:26:05;8.43;;;5.17;;
3267;SDS011;1646;52.450;13.326;2023-11-22T04:31:04;9.17;;;5.10;;
3267;SDS011;1646;52.450;13.326;2023-11-22T04:36:05;8.90;;;4.53;;
3267;SDS011;1646;52.450;13.326;2023-11-22T04:41:05;10.50;;;4.80;;
3267;SDS011;1646;52.450;13.326;2023-11-22T04:46:04;12.37;;;6.20;;
3267;SDS011;1646;52.450;13.326;2023-11-22T04:51:02;12.90;;;6.23;;
3267;SDS011;1646;52.450;13.326;2023-11-22T04:56:01;14.03;;;6.63;;
3267;SDS011;1646;52.450;13.326;2023-11-22T05:01:03;13.20;;;6.13;;
3267;SDS011;1646;52.450;13.326;2023-11-22T05:06:02;14.17;;;6.53;;
3267;SDS011;1646;52.450;13.326;2023-11-22T05:11:01;10.67;;;6.27;;
3267;SDS011;1646;52.450;13.326;2023-11-22T05:16:00;10.10;;;5.40;;
3267;SDS011;1646;52.450;13.326;2023-11-22T05:21:00;13.47;;;5.70;;
3267;SDS011;1646;52.450;13.326;2023-11-22T05:26:00;11.93;;;5.63;;
3267;SDS011;1646;52.450;13.326;2023-11-22T05:30:58;12.63;;;6.10;;
3267;SDS011;1646;52.450;13.326;2023-11-22T05:35:57;12.77;;;5.93;;
3267;SDS011;1646;52.450;13.326;2023-11-22T05:40:56;11.53;;;5.87;;
3267;SDS011;1646;52.450;13.326;2023-11-22T05:45:54;12.43;;;5.93;;
3267;SDS011;1646;52.450;13.326;2023-11-22T05:50:53;11.33;;;5.73;;
3267;SDS011;1646;52.450;13.326;2023-11-22T05:55:52;9.93;;;6.03;;
3267;SDS011;1646;52.450;13.326;2023-11-22T06:00:51;11.13;;;5.63;;
3267;SDS011;1646;52.450;13.326;2023-11-22T06:05:50;12.63;;;5.87;;
3267;SDS011;1646;52.450;13.326;2023-11-22T06:10:48;10.47;;;6.00;;
3267;SDS011;1646;52.450;13.326;2023-11-22T06:15:48;11.90;;;5.70;;
3267;SDS011;1646;52.450;13.326;2023-11-22T06:20:47;15.90;;;6.70;;
3267;SDS011;1646;52.450;13.326;2023-11-22T06:25:46;13.70;;;5.50;;
3267;SDS011;1646;52.450;13.326;2023-11-22T06:30:44;15.13;;;6.37;;
3267;SDS011;1646;52.450;13.326;2023-11-22T06:35:43;10.53;;;5.43;;
3267;SDS011;1646;52.450;13.326;2023-11-22T06:40:43;9.57;;;4.97;;
3267;SDS011;1646;52.450;13.326;2023-11-22T06:45:41;11.03;;;6.40;;
3267;SDS011;1646;52.450;13.326;2023-11-22T06:50:39;12.87;;;5.73;;
3267;SDS011;1646;52.450;13.326;2023-11-22T06:55:38;12.23;;;5.97;;
3267;SDS011;1646;52.450;13.326;2023-11-22T07:00:38;14.73;;;5.97;;
3267;SDS011;1646;52.450;13.326;2023-11-22T07:05:37;13.70;;;6.73;;
3267;SDS011;1646;52.450;13.326;2023-11-22T07:10:35;12.27;;;6.10;;
3267;SDS011;1646;52.450;13.326;2023-11-22T07:15:33;13.07;;;5.97;;
3267;SDS011;1646;52.450;13.326;2023-11-22T07:20:33;14.50;;;6.77;;
3267;SDS011;1646;52.450;13.326;2023-11-22T07:25:32;11.43;;;6.40;;
3267;SDS011;1646;52.450;13.326;2023-11-22T07:30:30;13.50;;;5.77;;
3267;SDS011;1646;52.450;13.326;2023-11-22T07:35:30;12.23;;;6.70;;
3267;SDS011;1646;52.450;13.326;2023-11-22T07:40:30;10.40;;;5.93;;
3267;SDS011;1646;52.450;13.326;2023-11-22T07:45:28;16.13;;;6.60;;
3267;SDS011;1646;52.450;13.326;2023-11-22T07:50:28;12.47;;;5.53;;
3267;SDS011;1646;52.450;13.326;2023-11-22T07:55:27;13.40;;;6.40;;
3267;SDS011;1646;52.450;13.326;2023-11-22T08:00:26;13.30;;;6.23;;
3267;SDS011;1646;52.450;13.326;2023-11-22T08:05:26;12.03;;;6.07;;
3267;SDS011;1646;52.450;13.326;2023-11-22T08:10:24;11.60;;;6.37;;
3267;SDS011;1646;52.450;13.326;2023-11-22T08:15:24;17.43;;;7.40;;
3267;SDS011;1646;52.450;13.326;2023-11-22T08:20:24;11.03;;;6.00;;
3267;SDS011;1646;52.450;13.326;2023-11-22T08:25:22;11.70;;;6.40;;
3267;SDS011;1646;52.450;13.326;2023-11-22T08:30:20;11.87;;;6.33;;
3267;SDS011;1646;52.450;13.326;2023-11-22T08:35:19;10.37;;;5.37;;
3267;SDS011;1646;52.450;13.326;2023-11-22T08:40:21;12.37;;;6.07;;
3267;SDS011;1646;52.450;13.326;2023-11-22T08:45:20;12.97;;;5.37;;
3267;SDS011;1646;52.450;13.326;2023-11-22T08:50:18;10.53;;;5.60;;
3267;SDS011;1646;52.450;13.326;2023-11-22T08:55:17;12.30;;;6.70;;
3267;SDS011;1646;52.450;13.326;2023-11-22T09:00:20;9.90;;;5.40;;
3267;SDS011;1646;52.450;13.326;2023-11-22T09:05:19;14.07;;;6.37;;
3267;SDS011;1646;52.450;13.326;2023-11-22T09:10:18;12.30;;;6.63;;
3267;SDS011;1646;52.450;13.326;2023-11-22T09:15:19;8.77;;;5.83;;
3267;SDS011;1646;52.450;13.326;2023-11-22T09:20:23;9.80;;;5.63;;
3267;SDS011;1646;52.450;13.326;2023-11-22T09:25:21;10.60;;;6.20;;
3267;SDS011;1646;52.450;13.326;2023-11-22T09:30:22;10.80;;;6.10;;
3267;SDS011;1646;52.450;13.326;2023-11-22T09:35:31;11.60;;;5.67;;
3267;SDS011;1646;52.450;13.326;2023-11-22T09:40:30;11.33;;;5.83;;
3267;SDS011;1646;52.450;13.326;2023-11-22T09:45:30;12.47;;;6.10;;
3267;SDS011;1646;52.450;13.326;2023-11-22T09:50:31;12.73;;;6.33;;
3267;SDS011;1646;52.450;13.326;2023-11-22T09:55:33;9.70;;;6.03;;
3267;SDS011;1646;52.450;13.326;2023-11-22T10:00:33;11.50;;;5.90;;
3267;SDS011;1646;52.450;13.326;2023-11-22T10:05:32;10.73;;;6.83;;
3267;SDS011;1646;52.450;13.326;2023-11-22T10:10:30;9.03;;;5.93;;
3267;SDS011;1646;52.450;13.326;2023-11-22T10:15:33;11.17;;;6.40;;
3267;SDS011;1646;52.450;13.326;2023-11-22T10:20:35;10.90;;;6.30;;
3267;SDS011;1646;52.450;13.326;2023-11-22T10:25:36;10.93;;;5.50;;
3267;SDS011;1646;52.450;13.326;2023-11-22T10:30:35;9.27;;;6.33;;
3267;SDS011;1646;52.450;13.326;2023-11-22T10:35:34;8.90;;;6.27;;
3267;SDS011;1646;52.450;13.326;2023-11-22T10:40:33;10.13;;;6.40;;
3267;SDS011;1646;52.450;13.326;2023-11-22T10:45:33;10.50;;;6.80;;
3267;SDS011;1646;52.450;13.326;2023-11-22T10:50:35;10.23;;;6.43;;
3267;SDS011;1646;52.450;13.326;2023-11-22T10:55:34;13.87;;;7.63;;
3267;SDS011;1646;52.450;13.326;2023-11-22T11:00:34;9.90;;;5.77;;
3267;SDS011;1646;52.450;13.326;2023-11-22T11:05:35;11.13;;;6.90;;
3267;SDS011;1646;52.450;13.326;2023-11-22T11:10:39;10.23;;;6.27;;
3267;SDS011;1646;52.450;13.326;2023-11-22T11:15:38;9.03;;;6.17;;
3267;SDS011;1646;52.450;13.326;2023-11-22T11:20:47;9.20;;;6.13;;
3267;SDS011;1646;52.450;13.326;2023-11-22T11:25:47;8.77;;;6.17;;
3267;SDS011;1646;52.450;13.326;2023-11-22T11:30:46;10.10;;;6.60;;
3267;SDS011;1646;52.450;13.326;2023-11-22T11:35:47;10.83;;;6.53;;
3267;SDS011;1646;52.450;13.326;2023-11-22T11:40:47;10.07;;;5.97;;
3267;SDS011;1646;52.450;13.326;2023-11-22T11:45:47;11.30;;;7.13;;
3267;SDS011;1646;52.450;13.326;2023-11-22T11:50:52;9.50;;;5.80;;
3267;SDS011;1646;52.450;13.326;2023-11-22T11:55:50;10.77;;;6.20;;
3267;SDS011;1646;52.450;13.326;2023-11-22T12:00:50;9.53;;;6.20;;
3267;SDS011;1646;52.450;13.326;2023-11-22T12:05:50;11.80;;;6.43;;
3267;SDS011;1646;52.450;13.326;2023-11-22T12:10:48;17.90;;;6.70;;
3267;SDS011;1646;52.450;13.326;2023-11-22T12:15:47;9.17;;;5.70;;
3267;SDS011;1646;52.450;13.326;2023-11-22T12:20:54;7.87;;;5.23;;
3267;SDS011;1646;52.450;13.326;2023-11-22T12:25:55;7.87;;;5.07;;
3267;SDS011;1646;52.450;13.326;2023-11-22T12:30:54;13.03;;;6.10;;
3267;SDS011;1646;52.450;13.326;2023-11-22T12:35:52;8.40;;;4.90;;
3267;SDS011;1646;52.450;13.326;2023-11-22T12:40:56;14.70;;;5.20;;
3267;SDS011;1646;52.450;13.326;2023-11-22T12:46:00;10.53;;;5.10;;
3267;SDS011;1646;52.450;13.326;2023-11-22T12:51:01;13.23;;;4.50;;
3267;SDS011;1646;52.450;13.326;2023-11-22T12:56:00;7.97;;;4.73;;
3267;SDS011;1646;52.450;13.326;2023-11-22T13:00:59;8.13;;;5.03;;
3267;SDS011;1646;52.450;13.326;2023-11-22T13:05:57;12.33;;;5.00;;
3267;SDS011;1646;52.450;13.326;2023-11-22T13:10:57;9.67;;;4.50;;
3267;SDS011;1646;52.450;13.326;2023-11-22T13:15:56;7.80;;;4.57;;
3267;SDS011;1646;52.450;13.326;2023-11-22T13:20:55;9.07;;;5.20;;
3267;SDS011;1646;52.450;13.326;2023-11-22T13:25:53;9.00;;;5.03;;
3267;SDS011;1646;52.450;13.326;2023-11-22T13:30:53;7.47;;;4.60;;
3267;SDS011;1646;52.450;13.326;2023-11-22T13:35:51;8.63;;;5.90;;
3267;SDS011;1646;52.450;13.326;2023-11-22T13:40:50;8.00;;;4.60;;
3267;SDS011;1646;52.450;13.326;2023-11-22T13:45:48;7.47;;;4.10;;
3267;SDS011;1646;52.450;13.326;2023-11-22T13:50:48;9.17;;;5.20;;
3267;SDS011;1646;52.450;13.326;2023-11-22T13:55:47;7.83;;;3.70;;
3267;SDS011;1646;52.450;13.326;2023-11-22T14:00:47;12.57;;;5.53;;
3267;SDS011;1646;52.450;13.326;2023-11-22T14:05:46;10.93;;;5.20;;
3267;SDS011;1646;52.450;13.326;2023-11-22T14:10:46;12.00;;;5.20;;
3267;SDS011;1646;52.450;13.326;2023-11-22T14:15:44;9.23;;;4.97;;
3267;SDS011;1646;52.450;13.326;2023-11-22T14:20:42;9.03;;;5.23;;
3267;SDS011;1646;52.450;13.326;2023-11-22T14:25:41;11.20;;;5.10;;
3267;SDS011;1646;52.450;13.326;2023-11-22T14:30:40;10.90;;;5.43;;
3267;SDS011;1646;52.450;13.326;2023-11-22T14:35:39;9.93;;;5.23;;
3267;SDS011;1646;52.450;13.326;2023-11-22T14:40:40;9.40;;;5.10;;
3267;SDS011;1646;52.450;13.326;2023-11-22T14:45:40;13.80;;;6.17;;
3267;SDS011;1646;52.450;13.326;2023-11-22T14:50:38;11.07;;;5.80;;
3267;SDS011;1646;52.450;13.326;2023-11-22T14:55:37;13.83;;;5.87;;
3267;SDS011;1646;52.450;13.326;2023-11-22T15:00:38;11.43;;;5.60;;
3267;SDS011;1646;52.450;13.326;2023-11-22T15:05:37;11.63;;;5.43;;
3267;SDS011;1646;52.450;13.326;2023-11-22T15:10:36;19.63;;;5.80;;
3267;SDS011;1646;52.450;13.326;2023-11-22T15:15:34;9.50;;;5.60;;
3267;SDS011;1646;52.450;13.326;2023-11-22T15:20:32;12.70;;;6.20;;
3267;SDS011;1646;52.450;13.326;2023-11-22T15:25:32;12.23;;;5.43;;
3267;SDS011;1646;52.450;13.326;2023-11-22T15:30:30;11.30;;;5.83;;
3267;SDS011;1646;52.450;13.326;2023-11-22T15:35:29;12.17;;;5.47;;
3267;SDS011;1646;52.450;13.326;2023-11-22T15:40:28;10.40;;;6.10;;
3267;SDS011;1646;52.450;13.326;2023-11-22T15:45:28;11.93;;;6.93;;
3267;SDS011;1646;52.450;13.326;2023-11-22T15:50:26;12.57;;;6.33;;
3267;SDS011;1646;52.450;13.326;2023-11-22T15:55:24;15.33;;;5.83;;
3267;SDS011;1646;52.450;13.326;2023-11-22T16:00:23;11.80;;;6.10;;
3267;SDS011;1646;52.450;13.326;2023-11-22T16:05:22;9.77;;;5.70;;
3267;SDS011;1646;52.450;13.326;2023-11-22T16:10:21;9.37;;;5.77;;
3267;SDS011;1646;52.450;13.326;2023-11-22T16:15:20;13.30;;;7.33;;
3267;SDS011;1646;52.450;13.326;2023-11-22T16:20:18;13.33;;;6.30;;
3267;SDS011;1646;52.450;13.326;2023-11-22T16:25:19;12.33;;;6.37;;
3267;SDS011;1646;52.450;13.326;2023-11-22T16:30:21;14.00;;;6.63;;
3267;SDS011;1646;52.450;13.326;2023-11-22T16:35:19;18.00;;;7.80;;
3267;SDS011;1646;52.450;13.326;2023-11-22T16:40:18;11.00;;;6.10;;
3267;SDS011;1646;52.450;13.326;2023-11-22T16:45:17;10.30;;;5.80;;
3267;SDS011;1646;52.450;13.326;2023-11-22T16:50:16;11.83;;;6.10;;
3267;SDS011;1646;52.450;13.326;2023-11-22T16:55:14;11.73;;;5.67;;
3267;SDS011;1646;52.450;13.326;2023-11-22T17:00:15;10.70;;;5.40;;
3267;SDS011;1646;52.450;13.326;2023-11-22T17:05:15;10.63;;;6.10;;
3267;SDS011;1646;52.450;13.326;2023-11-22T17:10:15;9.83;;;6.17;;
3267;SDS011;1646;52.450;13.326;2023-11-22T17:15:15;12.80;;;7.63;;
3267;SDS011;1646;52.450;13.326;2023-11-22T17:20:15;12.80;;;6.80;;
3267;SDS011;1646;52.450;13.326;2023-11-22T17:25:13;16.63;;;5.97;;
3267;SDS011;1646;52.450;13.326;2023-11-22T17:30:17;18.63;;;7.40;;
3267;SDS011;1646;52.450;13.326;2023-11-22T17:35:15;15.63;;;7.53;;
3267;SDS011;1646;52.450;13.326;2023-11-22T17:40:14;12.67;;;6.43;;
3267;SDS011;1646;52.450;13.326;2023-11-22T17:45:13;15.73;;;8.00;;
3267;SDS011;1646;52.450;13.326;2023-11-22T17:50:13;19.40;;;7.43;;
3267;SDS011;1646;52.450;13.326;2023-11-22T17:55:15;15.90;;;7.50;;
3267;SDS011;1646;52.450;13.326;2023-11-22T18:00:13;15.90;;;8.43;;
3267;SDS011;1646;52.450;13.326;2023-11-22T18:05:14;14.60;;;7.80;;
3267;SDS011;1646;52.450;13.326;2023-11-22T18:10:17;14.83;;;7.20;;
3267;SDS011;1646;52.450;13.326;2023-11-22T18:15:16;16.00;;;7.97;;
3267;SDS011;1646;52.450;13.326;2023-11-22T18:20:17;16.97;;;8.40;;
3267;SDS011;1646;52.450;13.326;2023-11-22T18:25:15;12.93;;;7.43;;
3267;SDS011;1646;52.450;13.326;2023-11-22T18:30:14;16.77;;;7.80;;
3267;SDS011;1646;52.450;13.326;2023-11-22T18:35:12;16.50;;;7.93;;
3267;SDS011;1646;52.450;13.326;2023-11-22T18:40:13;19.30;;;8.77;;
3267;SDS011;1646;52.450;13.326;2023-11-22T18:45:13;19.77;;;9.73;;
3267;SDS011;1646;52.450;13.326;2023-11-22T18:50:11;19.70;;;9.17;;
3267;SDS011;1646;52.450;13.326;2023-11-22T18:55:28;17.33;;;9.20;;
3267;SDS011;1646;52.450;13.326;2023-11-22T19:00:26;19.83;;;9.90;;
3267;SDS011;1646;52.450;13.326;2023-11-22T19:05:25;21.00;;;9.50;;
3267;SDS011;1646;52.450;13.326;2023-11-22T19:10:23;24.63;;;11.23;;
3267;SDS011;1646;52.450;13.326;2023-11-22T19:15:24;24.37;;;12.50;;
3267;SDS011;1646;52.450;13.326;2023-11-22T19:20:22;27.00;;;12.00;;
3267;SDS011;1646;52.450;13.326;2023-11-22T19:25:24;30.10;;;14.33;;
3267;SDS011;1646;52.450;13.326;2023-11-22T19:30:23;34.80;;;15.77;;
3267;SDS011;1646;52.450;13.326;2023-11-22T19:35:22;28.33;;;13.53;;
3267;SDS011;1646;52.450;13.326;2023-11-22T19:40:21;32.83;;;14.63;;
3267;SDS011;1646;52.450;13.326;2023-11-22T19:45:21;29.27;;;14.17;;
3267;SDS011;1646;52.450;13.326;2023-11-22T19:50:20;33.67;;;15.83;;
3267;SDS011;1646;52.450;13.326;2023-11-22T19:55:19;30.53;;;14.07;;
3267;SDS011;1646;52.450;13.326;2023-11-22T20:00:18;25.80;;;14.00;;
3267;SDS011;1646;52.450;13.326;2023-11-22T20:05:16;29.97;;;15.17;;
3267;SDS011;1646;52.450;13.326;2023-11-22T20:10:16;33.57;;;16.83;;
3267;SDS011;1646;52.450;13.326;2023-11-22T20:15:19;32.23;;;15.77;;
3267;SDS011;1646;52.450;13.326;2023-11-22T20:20:18;36.80;;;16.67;;
3267;SDS011;1646;52.450;13.326;2023-11-22T20:25:21;36.20;;;16.13;;
3267;SDS011;1646;52.450;13.326;2023-11-22T20:30:19;31.10;;;15.33;;
3267;SDS011;1646;52.450;13.326;2023-11-22T20:35:18;35.97;;;16.30;;
3267;SDS011;1646;52.450;13.326;2023-11-22T20:40:16;31.10;;;16.30;;
3267;SDS011;1646;52.450;13.326;2023-11-22T20:45:16;31.97;;;14.97;;
3267;SDS011;1646;52.450;13.326;2023-11-22T20:50:14;35.60;;;16.83;;
3267;SDS011;1646;52.450;13.326;2023-11-22T20:55:13;33.07;;;16.40;;
3267;SDS011;1646;52.450;13.326;2023-11-22T21:00:12;38.20;;;17.73;;
3267;SDS011;1646;52.450;13.326;2023-11-22T21:05:13;35.30;;;16.73;;
3267;SDS011;1646;52.450;13.326;2023-11-22T21:10:12;34.03;;;16.80;;
3267;SDS011;1646;52.450;13.326;2023-11-22T21:15:10;37.03;;;18.53;;
3267;SDS011;1646;52.450;13.326;2023-11-22T21:20:09;38.03;;;17.67;;
3267;SDS011;1646;52.450;13.326;2023-11-22T21:25:11;38.27;;;16.33;;
3267;SDS011;1646;52.450;13.326;2023-11-22T21:30:09;36.80;;;17.13;;
3267;SDS011;1646;52.450;13.326;2023-11-22T21:35:08;29.60;;;16.07;;
3267;SDS011;1646;52.450;13.326;2023-11-22T21:40:11;32.93;;;15.80;;
3267;SDS011;1646;52.450;13.326;2023-11-22T21:45:09;32.57;;;17.10;;
3267;SDS011;1646;52.450;13.326;2023-11-22T21:50:09;33.40;;;16.60;;
3267;SDS011;1646;52.450;13.326;2023-11-22T21:55:10;32.67;;;15.50;;
3267;SDS011;1646;52.450;13.326;2023-11-22T22:00:09;33.10;;;17.10;;
3267;SDS011;1646;52.450;13.326;2023-11-22T22:05:11;37.37;;;17.07;;
3267;SDS011;1646;52.450;13.326;2023-11-22T22:10:11;27.80;;;14.43;;
3267;SDS011;1646;52.450;13.326;2023-11-22T22:15:09;26.80;;;14.03;;
3267;SDS011;1646;52.450;13.326;2023-11-22T22:20:08;29.97;;;15.30;;
3267;SDS011;1646;52.450;13.326;2023-11-22T22:25:07;34.10;;;15.30;;
3267;SDS011;1646;52.450;13.326;2023-11-22T22:30:08;33.17;;;15.23;;
3267;SDS011;1646;52.450;13.326;2023-11-22T22:35:07;27.40;;;13.90;;
3267;SDS011;1646;52.450;13.326;2023-11-22T22:40:06;23.83;;;12.77;;
3267;SDS011;1646;52.450;13.326;2023-11-22T22:45:05;30.43;;;13.70;;
3267;SDS011;1646;52.450;13.326;2023-11-22T22:50:06;26.47;;;14.70;;
3267;SDS011;1646;52.450;13.326;2023-11-22T22:55:06;26.13;;;12.53;;
3267;SDS011;1646;52.450;13.326;2023-11-22T23:00:05;24.50;;;12.67;;
3267;SDS011;1646;52.450;13.326;2023-11-22T23:05:20;23.50;;;11.80;;
3267;SDS011;1646;52.450;13.326;2023-11-22T23:10:22;19.40;;;9.93;;
3267;SDS011;1646;52.450;13.326;2023-11-22T23:15:22;18.10;;;9.43;;
3267;SDS011;1646;52.450;13.326;2023-11-22T23:20:21;20.77;;;11.20;;
3267;SDS011;1646;52.450;13.326;2023-11-22T23:25:19;21.03;;;10.87;;
3267;SDS011;1646;52.450;13.326;2023-11-22T23:30:19;18.23;;;10.20;;
3267;SDS011;1646;52.450;13.326;2023-11-22T23:35:19;20.53;;;10.13;;
3267;SDS011;1646;52.450;13.326;2023-11-22T23:40:18;22.73;;;10.93;;
3267;SDS011;1646;52.450;13.326;2023-11-22T23:45:20;18.53;;;10.10;;
3267;SDS011;1646;52.450;13.326;2023-11-22T23:50:21;16.80;;;8.00;;
3267;SDS011;1646;52.450;13.326;2023-11-22T23:55:19;19.73;;;9.83;;
